Time,TemperatureF,DewpointF,PressureIn,WindDirection,WindDirectionDegrees,WindSpeedMPH,WindSpeedGustMPH,Humidity,HourlyPrecipIn,Conditions,Clouds,dailyrainin,SolarRadiationWatts/m^2,SoftwareType,DateUTC
2013-09-01 00:22:00,66.0,42.0,-100.00,North,9,5.0,10.0,42,0.00,,,0.00,0.000000,,2013-09-01 07:22:00,
2013-09-01 00:52:00,67.0,43.0,-100.00,East,101,6.0,10.0,42,0.00,,,0.00,0.000000,,2013-09-01 07:52:00,
2013-09-01 01:02:00,67.0,43.0,-100.00,East,101,6.0,10.0,42,0.00,,,0.00,0.000000,,2013-09-01 08:02:00,
2013-09-01 01:11:00,67.0,43.0,-100.00,East,101,6.0,10.0,42,0.00,,,0.00,0.000000,,2013-09-01 08:11:00,
2013-09-01 01:22:00,67.0,43.0,-100.00,East,101,6.0,10.0,42,0.00,,,0.00,0.000000,,2013-09-01 08:22:00,
2013-09-01 02:11:00,65.0,43.0,-100.00,NNE,13,5.0,11.0,45,0.00,,,0.00,0.000000,,2013-09-01 09:11:00,
2013-09-01 02:21:00,65.0,43.0,-100.00,NNE,13,5.0,11.0,45,0.00,,,0.00,0.000000,,2013-09-01 09:21:00,
2013-09-01 02:53:00,66.0,43.0,-100.00,NNW,346,7.0,10.0,44,0.00,,,0.00,0.000000,,2013-09-01 09:53:00,
2013-09-01 03:03:00,66.0,43.0,-100.00,NNW,346,7.0,10.0,44,0.00,,,0.00,0.000000,,2013-09-01 10:03:00,
2013-09-01 03:12:00,66.0,43.0,-100.00,NNW,346,7.0,10.0,44,0.00,,,0.00,0.000000,,2013-09-01 10:12:00,
2013-09-01 03:23:00,66.0,43.0,-100.00,NNW,346,7.0,10.0,44,0.00,,,0.00,0.000000,,2013-09-01 10:23:00,
2013-09-01 03:53:00,63.0,42.0,-100.00,NW,311,7.0,11.0,47,0.00,,,0.00,0.000000,,2013-09-01 10:53:00,
2013-09-01 04:02:00,63.0,42.0,-100.00,NW,311,7.0,11.0,47,0.00,,,0.00,0.000000,,2013-09-01 11:02:00,
2013-09-01 04:12:00,63.0,42.0,-100.00,NW,311,7.0,11.0,47,0.00,,,0.00,0.000000,,2013-09-01 11:12:00,
2013-09-01 04:22:00,63.0,42.0,-100.00,NW,311,7.0,11.0,47,0.00,,,0.00,0.000000,,2013-09-01 11:22:00,
2013-09-01 04:52:00,62.0,43.0,-100.00,SSE,167,8.0,12.0,50,0.00,,,0.00,0.000000,,2013-09-01 11:52:00,
2013-09-01 05:01:00,62.0,43.0,-100.00,SSE,167,8.0,12.0,50,0.00,,,0.00,0.000000,,2013-09-01 12:01:00,
2013-09-01 05:12:00,62.0,43.0,-100.00,SSE,167,8.0,12.0,50,0.00,,,0.00,0.000000,,2013-09-01 12:12:00,
2013-09-01 05:22:00,62.0,43.0,-100.00,SSE,167,8.0,12.0,50,0.00,,,0.00,0.000000,,2013-09-01 12:22:00,
2013-09-01 05:52:00,61.0,44.0,-100.00,SE,137,7.0,10.0,54,0.00,,,0.00,0.000000,,2013-09-01 12:52:00,
2013-09-01 06:01:00,61.0,44.0,-100.00,SE,137,7.0,10.0,54,0.00,,,0.00,0.000000,,2013-09-01 13:01:00,
2013-09-01 06:52:00,62.0,45.0,-100.00,WSW,247,6.0,11.0,53,-99.99,,,0.00,0.000000,,2013-09-01 13:52:00,
2013-09-01 07:02:00,62.0,45.0,-100.00,WSW,247,6.0,11.0,53,-99.99,,,0.00,0.000000,,2013-09-01 14:02:00,
2013-09-01 07:11:00,62.0,45.0,-100.00,WSW,247,6.0,11.0,53,-99.99,,,0.00,0.000000,,2013-09-01 14:11:00,
2013-09-01 07:52:00,66.0,45.0,-100.00,WNW,294,6.0,11.0,47,0.00,,,0.00,66.000000,,2013-09-01 14:52:00,
2013-09-01 08:02:00,66.0,45.0,-100.00,WNW,294,6.0,11.0,47,0.00,,,0.00,66.000000,,2013-09-01 15:02:00,
2013-09-01 08:11:00,66.0,45.0,-100.00,WNW,294,6.0,11.0,47,0.00,,,0.00,66.000000,,2013-09-01 15:11:00,
2013-09-01 08:22:00,66.0,45.0,-100.00,WNW,294,6.0,11.0,47,0.00,,,0.00,66.000000,,2013-09-01 15:22:00,
2013-09-01 08:55:00,72.0,47.0,-100.00,NNE,17,7.0,13.0,41,0.00,,,0.00,233.000000,,2013-09-01 15:55:00,
2013-09-01 09:05:00,72.0,47.0,-100.00,NNE,17,7.0,13.0,41,0.00,,,0.00,233.000000,,2013-09-01 16:05:00,
2013-09-01 09:14:00,72.0,47.0,-100.00,NNE,17,7.0,13.0,41,0.00,,,0.00,233.000000,,2013-09-01 16:14:00,
2013-09-01 09:24:00,72.0,47.0,-100.00,NNE,17,7.0,13.0,41,0.00,,,0.00,233.000000,,2013-09-01 16:24:00,
2013-09-01 09:53:00,75.0,44.0,-100.00,NNW,347,7.0,13.0,33,0.00,,,0.00,475.000000,,2013-09-01 16:53:00,
2013-09-01 10:03:00,75.0,44.0,-100.00,NNW,347,7.0,13.0,33,0.00,,,0.00,475.000000,,2013-09-01 17:03:00,
2013-09-01 10:12:00,75.0,44.0,-100.00,NNW,347,7.0,13.0,33,0.00,,,0.00,475.000000,,2013-09-01 17:12:00,
2013-09-01 10:23:00,75.0,44.0,-100.00,NNW,347,7.0,13.0,33,0.00,,,0.00,475.000000,,2013-09-01 17:23:00,
2013-09-01 10:52:00,79.0,43.0,-100.00,NW,313,4.0,12.0,28,0.00,,,0.00,781.000000,,2013-09-01 17:52:00,
2013-09-01 11:02:00,79.0,43.0,-100.00,NW,313,4.0,12.0,28,0.00,,,0.00,781.000000,,2013-09-01 18:02:00,
2013-09-01 11:12:00,79.0,43.0,-100.00,NW,313,4.0,12.0,28,0.00,,,0.00,781.000000,,2013-09-01 18:12:00,
2013-09-01 11:22:00,79.0,43.0,-100.00,NW,313,4.0,12.0,28,0.00,,,0.00,781.000000,,2013-09-01 18:22:00,
2013-09-01 11:52:00,85.0,46.0,-100.00,SE,134,5.0,12.0,26,0.00,,,0.00,920.000000,,2013-09-01 18:52:00,
2013-09-01 12:02:00,85.0,46.0,-100.00,SE,134,5.0,12.0,26,0.00,,,0.00,920.000000,,2013-09-01 19:02:00,
2013-09-01 12:12:00,85.0,46.0,-100.00,SE,134,5.0,12.0,26,0.00,,,0.00,920.000000,,2013-09-01 19:12:00,
2013-09-01 12:22:00,85.0,46.0,-100.00,SE,134,5.0,12.0,26,0.00,,,0.00,920.000000,,2013-09-01 19:22:00,
2013-09-01 13:12:00,88.0,44.0,-100.00,ENE,60,4.0,11.0,22,0.00,,,0.00,943.000000,,2013-09-01 20:12:00,
2013-09-01 13:21:00,88.0,44.0,-100.00,ENE,60,4.0,11.0,22,0.00,,,0.00,943.000000,,2013-09-01 20:21:00,
2013-09-01 13:52:00,88.0,42.0,-100.00,NW,312,6.0,12.0,20,0.00,,,0.00,780.000000,,2013-09-01 20:52:00,
2013-09-01 14:02:00,88.0,42.0,-100.00,NW,312,6.0,12.0,20,0.00,,,0.00,780.000000,,2013-09-01 21:02:00,
2013-09-01 14:11:00,88.0,42.0,-100.00,NW,312,6.0,12.0,20,0.00,,,0.00,780.000000,,2013-09-01 21:11:00,
2013-09-01 14:21:00,88.0,42.0,-100.00,NW,312,6.0,12.0,20,0.00,,,0.00,780.000000,,2013-09-01 21:21:00,
2013-09-01 14:55:00,87.0,45.0,-100.00,SSW,193,7.0,17.0,23,0.00,,,0.00,645.000000,,2013-09-01 21:55:00,
2013-09-01 15:04:00,87.0,45.0,-100.00,SSW,193,7.0,17.0,23,0.00,,,0.00,645.000000,,2013-09-01 22:04:00,
2013-09-01 15:14:00,87.0,45.0,-100.00,SSW,193,7.0,17.0,23,0.00,,,0.00,645.000000,,2013-09-01 22:14:00,
2013-09-01 15:24:00,87.0,45.0,-100.00,SSW,193,7.0,17.0,23,0.00,,,0.00,645.000000,,2013-09-01 22:24:00,
2013-09-01 15:53:00,82.0,42.0,-100.00,NW,312,10.0,18.0,24,0.00,,,0.00,574.000000,,2013-09-01 22:53:00,
2013-09-01 16:03:00,82.0,42.0,-100.00,NW,312,10.0,18.0,24,0.00,,,0.00,574.000000,,2013-09-01 23:03:00,
2013-09-01 16:12:00,82.0,42.0,-100.00,NW,312,10.0,18.0,24,0.00,,,0.00,574.000000,,2013-09-01 23:12:00,
2013-09-01 16:23:00,82.0,42.0,-100.00,NW,312,10.0,18.0,24,0.00,,,0.00,574.000000,,2013-09-01 23:23:00,
2013-09-01 16:53:00,85.0,42.0,-100.00,SE,142,9.0,18.0,22,0.00,,,0.00,529.000000,,2013-09-01 23:53:00,
2013-09-01 17:02:00,85.0,42.0,-100.00,SE,142,9.0,18.0,22,0.00,,,0.00,529.000000,,2013-09-02 00:02:00,
2013-09-01 17:11:00,85.0,42.0,-100.00,SE,142,9.0,18.0,22,0.00,,,0.00,529.000000,,2013-09-02 00:11:00,
2013-09-01 17:22:00,85.0,42.0,-100.00,SE,142,9.0,18.0,22,0.00,,,0.00,529.000000,,2013-09-02 00:22:00,
2013-09-01 17:52:00,77.0,45.0,-100.00,WNW,300,11.0,21.0,32,0.00,,,0.00,315.000000,,2013-09-02 00:52:00,
2013-09-01 18:02:00,77.0,45.0,-100.00,WNW,300,11.0,21.0,32,0.00,,,0.00,315.000000,,2013-09-02 01:02:00,
2013-09-01 18:12:00,77.0,45.0,-100.00,WNW,300,11.0,21.0,32,0.00,,,0.00,315.000000,,2013-09-02 01:12:00,
2013-09-01 18:21:00,77.0,45.0,-100.00,WNW,300,11.0,21.0,32,0.00,,,0.00,315.000000,,2013-09-02 01:21:00,
2013-09-01 18:52:00,75.0,48.0,-100.00,WNW,286,9.0,19.0,39,0.00,,,0.00,233.000000,,2013-09-02 01:52:00,
2013-09-01 19:02:00,75.0,48.0,-100.00,WNW,286,9.0,19.0,39,0.00,,,0.00,233.000000,,2013-09-02 02:02:00,
2013-09-01 19:12:00,75.0,48.0,-100.00,WNW,286,9.0,19.0,39,0.00,,,0.00,233.000000,,2013-09-02 02:12:00,
2013-09-01 19:21:00,75.0,48.0,-100.00,WNW,286,9.0,19.0,39,0.00,,,0.00,233.000000,,2013-09-02 02:21:00,
2013-09-01 19:52:00,72.0,49.0,-100.00,ENE,62,9.0,16.0,45,0.00,,,0.00,14.000000,,2013-09-02 02:52:00,
2013-09-01 20:02:00,72.0,49.0,-100.00,ENE,62,9.0,16.0,45,0.00,,,0.00,14.000000,,2013-09-02 03:02:00,
2013-09-01 20:11:00,72.0,49.0,-100.00,ENE,62,9.0,16.0,45,0.00,,,0.00,14.000000,,2013-09-02 03:11:00,
2013-09-01 20:22:00,72.0,49.0,-100.00,ENE,62,9.0,16.0,45,0.00,,,0.00,14.000000,,2013-09-02 03:22:00,
2013-09-01 20:56:00,71.0,53.0,-100.00,WSW,242,11.0,19.0,53,0.00,,,0.00,0.000000,,2013-09-02 03:56:00,
2013-09-01 21:04:00,71.0,53.0,-100.00,WSW,242,11.0,19.0,53,0.00,,,0.00,0.000000,,2013-09-02 04:04:00,
2013-09-01 21:14:00,71.0,53.0,-100.00,WSW,242,11.0,19.0,53,0.00,,,0.00,0.000000,,2013-09-02 04:14:00,
2013-09-01 21:24:00,71.0,53.0,-100.00,WSW,242,11.0,19.0,53,0.00,,,0.00,0.000000,,2013-09-02 04:24:00,
2013-09-01 21:54:00,70.0,53.0,-100.00,North,6,7.0,17.0,54,0.00,,,0.00,0.000000,,2013-09-02 04:54:00,
2013-09-01 22:03:00,70.0,53.0,-100.00,North,6,7.0,17.0,54,0.00,,,0.00,0.000000,,2013-09-02 05:03:00,
2013-09-01 22:12:00,70.0,53.0,-100.00,North,6,7.0,17.0,54,0.00,,,0.00,0.000000,,2013-09-02 05:12:00,
2013-09-01 22:23:00,70.0,53.0,-100.00,North,6,7.0,17.0,54,0.00,,,0.00,0.000000,,2013-09-02 05:23:00,
2013-09-01 22:52:00,67.0,52.0,-100.00,NE,40,6.0,14.0,59,0.00,,,0.00,0.000000,,2013-09-02 05:52:00,
2013-09-01 23:03:00,67.0,52.0,-100.00,NE,40,6.0,14.0,59,0.00,,,0.00,0.000000,,2013-09-02 06:03:00,
2013-09-01 23:12:00,67.0,52.0,-100.00,NE,40,6.0,14.0,59,0.00,,,0.00,0.000000,,2013-09-02 06:12:00,
2013-09-01 23:22:00,67.0,52.0,-100.00,NE,40,6.0,14.0,59,0.00,,,0.00,0.000000,,2013-09-02 06:22:00,
2013-09-01 23:52:00,67.0,54.0,-100.00,North,2,6.0,9.0,64,0.00,,,0.00,0.000000,,2013-09-02 06:52:00,